createdAt,value
2018-11-02T00:00:41.627Z,7.10
2018-11-02T00:03:10.600Z,7.20
2018-11-02T00:05:39.408Z,7.20
2018-11-02T00:08:08.959Z,7.10
2018-11-02T00:10:38.013Z,7.10
2018-11-02T00:13:06.825Z,7.10
2018-11-02T00:15:35.628Z,7.00
2018-11-02T00:18:04.429Z,7.00
2018-11-02T00:20:33.233Z,7.00
2018-11-02T00:23:02.076Z,7.00
2018-11-02T00:25:30.952Z,7.00
2018-11-02T00:27:59.769Z,7.00
2018-11-02T00:30:28.575Z,7.10
2018-11-02T00:32:57.373Z,7.10
2018-11-02T00:35:27.851Z,7.10
2018-11-02T00:37:56.837Z,7.10
2018-11-02T00:40:25.636Z,7.00
2018-11-02T00:42:54.436Z,7.10
2018-11-02T00:45:23.240Z,7.00
2018-11-02T00:47:52.021Z,7.00
2018-11-02T00:50:20.795Z,7.00
2018-11-02T00:52:49.573Z,7.10
2018-11-02T00:55:18.353Z,7.20
2018-11-02T00:57:47.132Z,7.20
2018-11-02T01:00:15.999Z,7.10
2018-11-02T01:02:45.217Z,7.00
2018-11-02T01:05:13.986Z,6.80
2018-11-02T01:07:42.792Z,6.80
2018-11-02T01:10:11.581Z,6.90
2018-11-02T01:12:40.380Z,6.90
2018-11-02T01:15:10.196Z,6.90
2018-11-02T01:17:39.039Z,6.80
2018-11-02T01:20:09.501Z,6.80
2018-11-02T01:22:38.296Z,6.80
2018-11-02T01:25:07.480Z,6.90
2018-11-02T01:27:36.268Z,6.90
2018-11-02T01:30:05.343Z,6.70
2018-11-02T01:32:34.272Z,6.70
2018-11-02T01:35:03.056Z,6.70
2018-11-02T01:37:32.221Z,6.70
2018-11-02T01:40:01.042Z,6.60
2018-11-02T01:42:29.816Z,6.50
2018-11-02T01:44:58.605Z,6.60
2018-11-02T01:47:27.596Z,6.50
2018-11-02T01:49:56.364Z,6.40
2018-11-02T01:52:25.136Z,6.40
2018-11-02T01:54:53.913Z,6.40
2018-11-02T01:57:22.692Z,6.30
2018-11-02T01:59:51.458Z,6.30
2018-11-02T02:02:20.501Z,6.20
2018-11-02T02:04:49.276Z,6.30
2018-11-02T02:07:18.041Z,6.30
2018-11-02T02:09:46.824Z,6.40
2018-11-02T02:12:15.597Z,6.40
2018-11-02T02:14:44.372Z,6.40
2018-11-02T02:17:13.154Z,6.30
2018-11-02T02:19:41.974Z,6.30
2018-11-02T02:22:10.723Z,6.20
2018-11-02T02:24:39.513Z,6.20
2018-11-02T02:27:08.364Z,6.10
2018-11-02T02:29:37.164Z,6.20
2018-11-02T02:32:06.061Z,6.30
2018-11-02T02:34:34.863Z,6.30
2018-11-02T02:37:03.643Z,6.40
2018-11-02T02:39:32.424Z,6.30
2018-11-02T02:42:01.196Z,6.30
2018-11-02T02:44:30.005Z,6.30
2018-11-02T02:46:58.798Z,6.20
2018-11-02T02:49:27.587Z,6.20
2018-11-02T02:51:56.360Z,6.10
2018-11-02T02:54:25.148Z,6.10
2018-11-02T02:56:53.940Z,6.10
2018-11-02T02:59:22.716Z,6.10
2018-11-02T03:01:51.493Z,6.10
2018-11-02T03:04:20.287Z,6.10
2018-11-02T03:06:49.080Z,6.20
2018-11-02T03:09:17.864Z,6.10
2018-11-02T03:11:46.656Z,6.10
2018-11-02T03:14:15.427Z,6.00
2018-11-02T03:16:44.240Z,5.90
2018-11-02T03:19:13.049Z,6.00
2018-11-02T03:21:41.844Z,5.90
2018-11-02T03:24:10.632Z,5.80
2018-11-02T03:26:39.464Z,5.70
2018-11-02T03:29:08.324Z,5.70
2018-11-02T03:31:37.129Z,5.70
2018-11-02T03:34:05.960Z,5.70
2018-11-02T03:36:34.746Z,5.70
2018-11-02T03:39:04.127Z,5.80
2018-11-02T03:41:32.908Z,5.80
2018-11-02T03:44:01.677Z,5.90
2018-11-02T03:46:30.460Z,5.80
2018-11-02T03:48:59.229Z,5.80
2018-11-02T03:51:28.014Z,5.70
2018-11-02T03:53:56.787Z,5.60
2018-11-02T03:56:26.087Z,5.60
2018-11-02T03:58:54.836Z,5.60
2018-11-02T04:01:23.604Z,5.60
2018-11-02T04:03:52.380Z,5.50
2018-11-02T04:06:21.178Z,5.50
2018-11-02T04:08:49.920Z,5.50
2018-11-02T04:11:18.717Z,5.50
2018-11-02T04:13:47.496Z,5.50
2018-11-02T04:16:16.299Z,5.50
2018-11-02T04:18:45.059Z,5.50
2018-11-02T04:21:13.834Z,5.50
2018-11-02T04:23:42.600Z,5.40
2018-11-02T04:26:11.374Z,5.30
2018-11-02T04:28:40.136Z,5.30
2018-11-02T04:31:09.044Z,5.30
2018-11-02T04:33:37.685Z,5.20
2018-11-02T04:36:06.474Z,5.20
2018-11-02T04:38:35.252Z,5.20
2018-11-02T04:41:04.025Z,5.20
2018-11-02T04:43:32.821Z,5.30
2018-11-02T04:46:01.635Z,5.20
2018-11-02T04:48:30.397Z,5.30
2018-11-02T04:50:59.204Z,5.30
2018-11-02T04:53:27.932Z,5.20
2018-11-02T04:55:56.709Z,5.30
2018-11-02T04:58:25.490Z,5.30
2018-11-02T05:00:54.279Z,5.30
2018-11-02T05:03:23.069Z,5.30
2018-11-02T05:05:51.857Z,5.30
2018-11-02T05:08:20.672Z,5.40
2018-11-02T05:10:49.436Z,5.40
2018-11-02T05:13:18.530Z,5.40
2018-11-02T05:15:47.306Z,5.50
2018-11-02T05:18:16.050Z,5.40
2018-11-02T05:20:44.833Z,5.50
2018-11-02T05:23:13.625Z,5.60
2018-11-02T05:25:42.385Z,5.30
2018-11-02T05:28:11.189Z,5.20
2018-11-02T05:30:39.972Z,5.10
2018-11-02T05:33:08.772Z,5.00
2018-11-02T05:35:37.545Z,4.90
2018-11-02T05:38:06.329Z,4.90
2018-11-02T05:40:35.120Z,4.80
2018-11-02T05:43:03.897Z,4.70
2018-11-02T05:45:32.676Z,4.70
2018-11-02T05:48:01.705Z,4.70
2018-11-02T05:50:30.467Z,4.70
2018-11-02T05:52:59.289Z,4.70
2018-11-02T05:55:28.053Z,4.60
2018-11-02T05:57:56.836Z,4.60
2018-11-02T06:00:25.641Z,4.50
2018-11-02T06:02:54.453Z,4.50
2018-11-02T06:05:23.250Z,4.50
2018-11-02T06:07:52.045Z,4.50
2018-11-02T06:10:20.736Z,4.50
2018-11-02T06:12:49.509Z,4.60
2018-11-02T06:15:18.288Z,4.60
2018-11-02T06:17:47.076Z,4.70
2018-11-02T06:20:15.844Z,4.70
2018-11-02T06:22:44.633Z,4.70
2018-11-02T06:25:13.418Z,4.80
2018-11-02T06:27:42.207Z,4.70
2018-11-02T06:30:11.292Z,4.80
2018-11-02T06:32:40.169Z,4.80
2018-11-02T06:35:09.407Z,4.70
2018-11-02T06:37:38.214Z,4.70
2018-11-02T06:40:07.346Z,4.70
2018-11-02T06:42:36.574Z,4.70
2018-11-02T06:45:06.701Z,4.70
2018-11-02T06:47:35.477Z,4.80
2018-11-02T06:50:04.264Z,4.90
2018-11-02T06:52:33.064Z,4.90
2018-11-02T06:55:01.886Z,5.00
2018-11-02T06:57:30.673Z,5.10
2018-11-02T06:59:59.674Z,5.10
2018-11-02T07:02:28.361Z,5.20
2018-11-02T07:04:57.132Z,5.20
2018-11-02T07:07:26.058Z,5.30
2018-11-02T07:09:54.721Z,5.20
2018-11-02T07:12:23.513Z,5.30
2018-11-02T07:14:52.316Z,5.40
2018-11-02T07:17:21.124Z,5.40
2018-11-02T07:19:49.927Z,5.50
2018-11-02T07:22:18.737Z,5.60
2018-11-02T07:24:47.512Z,5.70
2018-11-02T07:27:16.289Z,5.80
2018-11-02T07:29:45.064Z,5.80
2018-11-02T07:32:13.856Z,5.80
2018-11-02T07:34:42.641Z,5.90
2018-11-02T07:37:11.445Z,6.00
2018-11-02T07:39:40.229Z,6.10
2018-11-02T07:42:09.027Z,6.20
2018-11-02T07:44:37.816Z,6.40
2018-11-02T07:47:06.596Z,6.40
2018-11-02T07:49:35.466Z,6.50
2018-11-02T07:52:04.264Z,6.60
2018-11-02T07:54:33.081Z,6.50
2018-11-02T07:57:01.882Z,6.50
2018-11-02T07:59:30.688Z,6.30
2018-11-02T08:01:59.592Z,6.20
2018-11-02T08:04:28.256Z,6.10
2018-11-02T08:06:57.036Z,6.00
2018-11-02T08:09:25.824Z,6.00
2018-11-02T08:11:54.625Z,6.00
2018-11-02T08:14:23.400Z,6.00
2018-11-02T08:16:52.190Z,5.90
2018-11-02T08:19:20.964Z,6.10
2018-11-02T08:21:49.756Z,6.20
2018-11-02T08:24:18.585Z,6.30
2018-11-02T08:26:47.359Z,6.40
2018-11-02T08:29:16.120Z,6.60
2018-11-02T08:31:44.912Z,6.80
2018-11-02T08:34:13.686Z,6.90
2018-11-02T08:36:42.459Z,7.00
2018-11-02T08:39:12.165Z,7.20
2018-11-02T08:41:41.054Z,7.40
2018-11-02T08:44:10.867Z,7.50
2018-11-02T08:46:39.846Z,7.70
2018-11-02T08:49:08.510Z,7.80
2018-11-02T08:51:37.397Z,7.80
2018-11-02T08:54:06.197Z,7.70
2018-11-02T08:56:34.976Z,7.70
2018-11-02T08:59:03.921Z,7.70
2018-11-02T09:01:32.720Z,7.90
2018-11-02T09:04:01.509Z,8.10
2018-11-02T09:06:30.642Z,8.30
2018-11-02T09:08:59.412Z,8.50
2018-11-02T09:11:28.184Z,8.50
2018-11-02T09:13:56.972Z,8.70
2018-11-02T09:16:25.792Z,8.80
2018-11-02T09:18:54.593Z,9.10
2018-11-02T09:21:23.754Z,9.30
2018-11-02T09:23:52.631Z,9.30
2018-11-02T09:26:21.406Z,9.40
2018-11-02T09:28:50.212Z,9.40
2018-11-02T09:31:19.133Z,9.50
2018-11-02T09:33:48.262Z,9.70
2018-11-02T09:36:17.021Z,9.60
2018-11-02T09:38:45.840Z,9.80
2018-11-02T09:41:14.640Z,10.00
2018-11-02T09:43:43.678Z,10.30
2018-11-02T09:46:12.525Z,10.20
2018-11-02T09:48:41.477Z,10.50
2018-11-02T09:51:10.286Z,11.20
2018-11-02T09:53:39.468Z,11.10
2018-11-02T09:56:08.352Z,11.10
2018-11-02T09:58:38.133Z,11.00
2018-11-02T10:01:08.250Z,11.20
2018-11-02T10:03:37.849Z,11.40
2018-11-02T10:06:06.722Z,11.70
2018-11-02T10:08:35.516Z,11.70
2018-11-02T10:11:04.346Z,11.60
2018-11-02T10:13:33.186Z,11.40
2018-11-02T10:16:02.144Z,11.30
2018-11-02T10:18:31.009Z,11.40
2018-11-02T10:20:59.824Z,11.30
2018-11-02T10:23:28.636Z,11.30
2018-11-02T10:25:57.489Z,11.30
2018-11-02T10:28:26.313Z,11.40
2018-11-02T10:30:55.234Z,11.40
2018-11-02T10:33:24.076Z,11.30
2018-11-02T10:35:54.009Z,11.30
2018-11-02T10:38:22.902Z,11.40
2018-11-02T10:40:55.632Z,11.50
2018-11-02T10:43:25.620Z,11.40
2018-11-02T10:45:58.379Z,11.30
2018-11-02T10:48:28.568Z,11.40
2018-11-02T10:50:57.397Z,11.50
2018-11-02T10:53:26.249Z,11.80
2018-11-02T10:55:55.356Z,12.30
2018-11-02T10:58:24.165Z,13.00
2018-11-02T11:00:59.608Z,13.50
2018-11-02T11:03:28.345Z,13.80
2018-11-02T11:05:57.145Z,13.50
2018-11-02T11:08:25.923Z,13.60
2018-11-02T11:10:54.723Z,13.50
2018-11-02T11:13:23.953Z,13.60
2018-11-02T11:15:52.983Z,14.00
2018-11-02T11:18:21.748Z,14.30
2018-11-02T11:20:50.600Z,14.90
2018-11-02T11:23:19.404Z,15.10
2018-11-02T11:25:48.269Z,14.90
2018-11-02T11:28:17.509Z,15.00
2018-11-02T11:30:46.817Z,15.00
2018-11-02T11:33:15.614Z,15.00
2018-11-02T11:35:44.435Z,15.30
2018-11-02T11:38:13.673Z,14.90
2018-11-02T11:40:43.976Z,15.30
2018-11-02T11:43:13.489Z,15.60
2018-11-02T11:45:44.622Z,15.70
2018-11-02T11:48:13.837Z,15.30
2018-11-02T11:50:42.621Z,15.30
2018-11-02T11:53:11.880Z,15.50
2018-11-02T11:55:40.735Z,15.70
2018-11-02T11:58:09.558Z,15.70
2018-11-02T12:00:38.379Z,14.60
2018-11-02T12:03:07.192Z,14.60
2018-11-02T12:05:35.992Z,14.50
2018-11-02T12:08:04.937Z,14.40
2018-11-02T12:10:33.906Z,14.30
2018-11-02T12:13:02.588Z,14.00
2018-11-02T12:15:31.450Z,13.80
2018-11-02T12:18:00.258Z,13.80
2018-11-02T12:20:29.922Z,14.00
2018-11-02T12:23:01.167Z,14.10
2018-11-02T12:25:30.090Z,14.10
2018-11-02T12:27:58.929Z,14.10
2018-11-02T12:30:27.724Z,14.20
2018-11-02T12:32:56.614Z,14.50
2018-11-02T12:35:25.412Z,14.80
2018-11-02T12:37:54.292Z,14.80
2018-11-02T12:40:23.983Z,14.70
2018-11-02T12:42:53.788Z,14.40
2018-11-02T12:45:23.304Z,14.10
2018-11-02T12:47:52.213Z,14.20
2018-11-02T12:50:23.401Z,14.10
2018-11-02T12:52:53.408Z,14.20
2018-11-02T12:55:22.865Z,14.20
2018-11-02T12:57:51.807Z,14.20
2018-11-02T13:00:22.954Z,14.20
2018-11-02T13:02:52.590Z,14.20
2018-11-02T13:05:21.400Z,14.40
2018-11-02T13:07:50.216Z,14.70
2018-11-02T13:10:20.455Z,14.70
2018-11-02T13:12:49.307Z,14.80
2018-11-02T13:15:19.602Z,14.80
2018-11-02T13:17:49.044Z,14.50
2018-11-02T13:20:18.001Z,14.50
2018-11-02T13:22:47.988Z,14.50
2018-11-02T13:25:18.130Z,14.60
2018-11-02T13:27:47.627Z,14.40
2018-11-02T13:30:16.609Z,14.20
2018-11-02T13:32:45.305Z,14.10
2018-11-02T13:35:16.528Z,13.90
2018-11-02T13:37:46.437Z,13.90
2018-11-02T13:40:16.479Z,13.90
2018-11-02T13:42:45.368Z,13.80
2018-11-02T13:45:15.449Z,13.70
2018-11-02T13:47:44.563Z,13.70
2018-11-02T13:50:13.596Z,13.60
2018-11-02T13:52:42.856Z,13.60
2018-11-02T13:55:12.253Z,13.50
2018-11-02T13:57:41.369Z,13.40
2018-11-02T14:00:12.997Z,13.30
2018-11-02T14:02:41.804Z,13.20
2018-11-02T14:05:12.528Z,13.00
2018-11-02T14:07:41.673Z,12.90
2018-11-02T14:10:11.421Z,12.80
2018-11-02T14:12:40.859Z,12.90
2018-11-02T14:15:11.680Z,12.80
2018-11-02T14:17:40.988Z,12.80
2018-11-02T14:20:10.930Z,12.80
2018-11-02T14:22:39.973Z,12.70
2018-11-02T14:25:11.198Z,12.80
2018-11-02T14:27:40.520Z,12.70
2018-11-02T14:30:13.753Z,12.70
2018-11-02T14:32:43.494Z,12.50
2018-11-02T14:35:12.761Z,12.40
2018-11-02T14:37:42.454Z,12.40
2018-11-02T14:40:12.433Z,12.30
2018-11-02T14:42:43.165Z,12.20
2018-11-02T14:45:14.847Z,12.10
2018-11-02T14:47:44.766Z,12.10
2018-11-02T14:50:13.778Z,12.20
2018-11-02T14:52:43.252Z,12.20
2018-11-02T14:55:12.182Z,12.20
2018-11-02T14:57:41.109Z,12.10
2018-11-02T15:00:11.234Z,12.10
2018-11-02T15:02:40.980Z,12.10
2018-11-02T15:05:11.089Z,12.10
2018-11-02T15:07:41.401Z,12.00
2018-11-02T15:10:10.329Z,12.00
2018-11-02T15:12:39.842Z,11.90
2018-11-02T15:15:09.103Z,11.70
2018-11-02T15:17:38.058Z,11.60
2018-11-02T15:20:10.334Z,11.60
2018-11-02T15:22:39.197Z,11.50
2018-11-02T15:25:08.081Z,11.50
2018-11-02T15:27:36.913Z,11.40
2018-11-02T15:30:08.108Z,11.40
2018-11-02T15:32:37.121Z,11.20
2018-11-02T15:35:06.697Z,11.20
2018-11-02T15:37:35.496Z,11.20
2018-11-02T15:40:04.693Z,11.10
2018-11-02T15:42:33.519Z,11.00
2018-11-02T15:45:02.381Z,11.00
2018-11-02T15:47:31.197Z,11.00
2018-11-02T15:50:00.025Z,10.90
2018-11-02T15:52:28.828Z,10.90
2018-11-02T15:54:57.637Z,10.90
2018-11-02T15:57:26.471Z,10.90
2018-11-02T15:59:55.503Z,10.90
2018-11-02T16:02:25.024Z,10.90
2018-11-02T16:04:53.850Z,10.90
2018-11-02T16:07:22.917Z,10.80
2018-11-02T16:09:51.712Z,10.90
2018-11-02T16:12:20.555Z,10.80
2018-11-02T16:14:49.410Z,10.70
2018-11-02T16:17:18.226Z,10.70
2018-11-02T16:19:47.083Z,10.60
2018-11-02T16:22:15.966Z,10.60
2018-11-02T16:24:44.768Z,10.60
2018-11-02T16:27:14.736Z,10.50
2018-11-02T16:29:45.262Z,10.40
2018-11-02T16:32:14.061Z,10.40
2018-11-02T16:34:42.898Z,10.30
2018-11-02T16:37:11.733Z,10.20
2018-11-02T16:39:40.542Z,10.10
2018-11-02T16:42:09.345Z,10.10
2018-11-02T16:44:38.212Z,10.00
2018-11-02T16:47:06.944Z,10.00
2018-11-02T16:49:35.760Z,9.90
2018-11-02T16:52:04.732Z,9.90
2018-11-02T16:54:33.633Z,9.80
2018-11-02T16:57:02.413Z,9.70
2018-11-02T16:59:31.204Z,9.70
2018-11-02T17:01:59.977Z,9.70
2018-11-02T17:04:29.535Z,9.70
2018-11-02T17:06:58.321Z,9.70
2018-11-02T17:09:27.166Z,9.60
2018-11-02T17:11:56.273Z,9.50
2018-11-02T17:14:25.100Z,9.40
2018-11-02T17:16:53.900Z,9.30
2018-11-02T17:19:23.032Z,9.30
2018-11-02T17:21:51.843Z,9.20
2018-11-02T17:24:20.644Z,9.30
2018-11-02T17:26:49.508Z,9.20
2018-11-02T17:29:18.320Z,9.10
2018-11-02T17:31:47.129Z,9.10
2018-11-02T17:34:15.933Z,9.00
2018-11-02T17:36:44.797Z,9.10
2018-11-02T17:39:13.517Z,9.00
2018-11-02T17:41:42.295Z,9.00
2018-11-02T17:44:11.102Z,8.90
2018-11-02T17:46:39.916Z,8.90
2018-11-02T17:49:08.676Z,8.90
2018-11-02T17:51:37.908Z,8.80
2018-11-02T17:54:06.696Z,8.80
2018-11-02T17:56:35.487Z,8.80
2018-11-02T17:59:04.355Z,8.80
2018-11-02T18:01:33.157Z,8.80
2018-11-02T18:04:01.980Z,8.80
2018-11-02T18:06:30.756Z,8.90
2018-11-02T18:08:59.562Z,8.80
2018-11-02T18:11:28.372Z,8.80
2018-11-02T18:13:57.152Z,8.70
2018-11-02T18:16:26.060Z,8.70
2018-11-02T18:18:55.009Z,8.70
2018-11-02T18:21:23.724Z,8.70
2018-11-02T18:23:52.504Z,8.70
2018-11-02T18:26:21.335Z,8.60
2018-11-02T18:28:50.161Z,8.70
2018-11-02T18:31:18.997Z,8.60
2018-11-02T18:33:47.780Z,8.60
2018-11-02T18:36:16.618Z,8.60
2018-11-02T18:38:45.433Z,8.60
2018-11-02T18:41:14.274Z,8.50
2018-11-02T18:43:43.080Z,8.60
2018-11-02T18:46:11.901Z,8.50
2018-11-02T18:48:40.873Z,8.50
2018-11-02T18:51:09.673Z,8.50
2018-11-02T18:53:38.497Z,8.60
2018-11-02T18:56:07.341Z,8.60
2018-11-02T18:58:36.133Z,8.50
2018-11-02T19:01:04.941Z,8.60
2018-11-02T19:03:33.760Z,8.50
2018-11-02T19:06:02.574Z,8.50
2018-11-02T19:08:31.423Z,8.60
2018-11-02T19:11:00.232Z,8.60
2018-11-02T19:13:29.278Z,8.60
2018-11-02T19:15:58.017Z,8.60
2018-11-02T19:18:26.825Z,8.50
2018-11-02T19:20:55.612Z,8.50
2018-11-02T19:23:24.417Z,8.50
2018-11-02T19:25:53.230Z,8.50
2018-11-02T19:28:22.020Z,8.40
2018-11-02T19:30:50.824Z,8.40
2018-11-02T19:33:19.656Z,8.40
2018-11-02T19:35:48.481Z,8.50
2018-11-02T19:38:17.282Z,8.50
2018-11-02T19:40:46.072Z,8.40
2018-11-02T19:43:14.896Z,8.40
2018-11-02T19:45:43.724Z,8.30
2018-11-02T19:48:12.512Z,8.40
2018-11-02T19:50:41.425Z,8.30
2018-11-02T19:53:10.173Z,8.30
2018-11-02T19:55:38.981Z,8.30
2018-11-02T19:58:07.769Z,8.20
2018-11-02T20:00:36.544Z,8.20
2018-11-02T20:03:05.465Z,8.10
2018-11-02T20:05:34.294Z,8.30
2018-11-02T20:08:03.138Z,8.40
2018-11-02T20:10:31.926Z,8.10
2018-11-02T20:13:00.728Z,8.10
2018-11-02T20:15:29.517Z,7.90
2018-11-02T20:17:58.321Z,8.00
2018-11-02T20:20:27.172Z,7.80
2018-11-02T20:22:55.965Z,8.00
2018-11-02T20:25:24.741Z,8.10
2018-11-02T20:27:53.545Z,8.00
2018-11-02T20:30:22.409Z,7.90
2018-11-02T20:32:51.233Z,7.80
2018-11-02T20:35:20.016Z,7.90
2018-11-02T20:37:49.560Z,7.90
2018-11-02T20:40:19.241Z,7.80
2018-11-02T20:42:48.115Z,7.80
2018-11-02T20:45:17.196Z,7.90
2018-11-02T20:47:47.740Z,7.80
2018-11-02T20:50:16.616Z,7.80
2018-11-02T20:52:45.416Z,7.60
2018-11-02T20:55:15.075Z,7.50
2018-11-02T20:57:44.001Z,7.50
2018-11-02T21:00:14.453Z,7.60
2018-11-02T21:02:43.583Z,7.60
2018-11-02T21:05:13.428Z,7.40
2018-11-02T21:07:42.591Z,7.30
2018-11-02T21:10:13.669Z,7.30
2018-11-02T21:12:42.531Z,7.40
2018-11-02T21:15:13.448Z,7.40
2018-11-02T21:17:42.328Z,7.60
2018-11-02T21:20:17.960Z,7.70
2018-11-02T21:22:46.737Z,7.70
2018-11-02T21:25:17.112Z,7.70
2018-11-02T21:27:46.480Z,7.80
2018-11-02T21:30:19.180Z,7.80
2018-11-02T21:32:48.538Z,7.80
2018-11-02T21:35:17.844Z,7.80
2018-11-02T21:37:46.991Z,7.80
2018-11-02T21:40:17.100Z,7.90
2018-11-02T21:42:45.924Z,8.00
2018-11-02T21:45:15.977Z,7.90
2018-11-02T21:47:45.136Z,7.90
2018-11-02T21:50:14.376Z,7.90
2018-11-02T21:52:43.355Z,7.80
2018-11-02T21:55:12.161Z,7.80
2018-11-02T21:57:40.987Z,7.80
2018-11-02T22:00:12.261Z,7.80
2018-11-02T22:02:41.304Z,7.80
2018-11-02T22:05:11.543Z,7.80
2018-11-02T22:07:40.686Z,7.80
2018-11-02T22:10:10.295Z,7.70
2018-11-02T22:12:39.404Z,7.70
2018-11-02T22:15:08.955Z,7.70
2018-11-02T22:17:38.017Z,7.70
2018-11-02T22:20:08.241Z,7.70
2018-11-02T22:22:37.104Z,7.60
2018-11-02T22:25:07.016Z,7.50
2018-11-02T22:27:35.847Z,7.40
2018-11-02T22:30:05.805Z,7.50
2018-11-02T22:32:34.642Z,7.40
2018-11-02T22:35:03.488Z,7.40
2018-11-02T22:37:32.272Z,7.40
2018-11-02T22:40:01.104Z,7.30
2018-11-02T22:42:29.966Z,7.30
2018-11-02T22:44:58.828Z,7.30
2018-11-02T22:47:27.919Z,7.20
2018-11-02T22:49:56.788Z,7.20
2018-11-02T22:52:25.673Z,7.20
2018-11-02T22:54:54.571Z,7.20
2018-11-02T22:57:23.497Z,7.20
2018-11-02T22:59:55.984Z,7.20
2018-11-02T23:02:36.749Z,7.20
2018-11-02T23:05:10.154Z,7.30
2018-11-02T23:07:41.925Z,7.40
2018-11-02T23:10:13.452Z,7.40
2018-11-02T23:12:48.848Z,7.40
2018-11-02T23:15:22.391Z,7.40
2018-11-02T23:17:52.306Z,7.40
2018-11-02T23:20:21.474Z,7.40
2018-11-02T23:22:51.000Z,7.40
2018-11-02T23:25:19.827Z,7.40
2018-11-02T23:27:48.644Z,7.50
2018-11-02T23:30:17.496Z,7.50
2018-11-02T23:32:46.580Z,7.60
2018-11-02T23:35:15.528Z,7.60
2018-11-02T23:37:44.495Z,7.70
2018-11-02T23:40:13.810Z,7.70
2018-11-02T23:42:42.739Z,7.70
2018-11-02T23:45:12.210Z,7.70
2018-11-02T23:47:45.305Z,7.70
2018-11-02T23:50:14.199Z,7.70
2018-11-02T23:52:43.016Z,7.70
2018-11-02T23:55:11.823Z,7.70
2018-11-02T23:57:40.877Z,7.70
